Portada
METAR-TAF:

METAR-TAF

Aeroports :

Aeroport de Fes

Fes, Marroc

latitud: 33-56N, longitud: 004-59W, altitud: 579 m

Observació

L'informe es va fer fa 14 minuts, a les 22:00 UTC
Vent 6 kt del Sud/Sud-Est, variant entre Est/Sud-Est i Sud
Temperatura 9°C
Humitat 87%
Pressió 1013 hPa
Visibilitat 10 km o més
sense núvols per sota de 1500 mi sense presència de cumulonimbus.

METAR: GMFF 052200Z 15006KT 110V170 CAVOK 09/07 Q1013 NOSIG

Hora: 23:14 (22:14 UTC)

Pronòstic

L'informe es va fer fa 5 hores i 14 minuts, a les 17:00 UTC
Pronòstic vàlid del 05 a les 18 UTC al 06 a les 24 UTC
Vent 6 kt del Est/Nord-Est
Visibilitat 10 km o més
Núvols disperses a una alçada de 2000 ft
Núvols disperses a una alçada de 10000 ft
Probabilitat 30% :
Temporalment
l' 06 a les 02 UTC al 06 a les 06 UTC
Visibilitat: 3000 m
boirina

TAF: GMFF 051700Z 0518/0624 06006KT 9999 SCT020 SCT100 PROB30 TEMPO 0602/0606 3000 BR

Observacions i pronòstics meteorològics de més de 4000 aeroports (METAR i TAF).

Les estacions disponibles són els punts grocs i vermells al mapa.

Posi el ratolí al punt desitjat per veure el nom de l'estació.

Feu clic per veure les observacions i els pronòstics meteorològics.

Per canviar el mapa: feu clic els botons verds amb una creu de color negre per apropar; al botó verd amb un guió per allunyar la imatge; o en les fletxes verdes per a mapes adjacents.


METAR-TAF: